PHOENIX SKY HARBOR INTL

KPHX (PHX)
Phoenix, Arizona
Towered

Vatsim Metar:
KPHX 280551Z 08011KT 10SM BKN250 12/M02 A3012 RMK AO2 SLP195 T01171022 10156 20111 50003 $